createdAt,value
2023-03-17T00:02:10.043Z,42.10
2023-03-17T00:04:38.306Z,44.60
2023-03-17T00:07:06.429Z,43.40
2023-03-17T00:09:34.306Z,44.10
2023-03-17T00:12:02.696Z,47.50
2023-03-17T00:14:31.065Z,40.50
2023-03-17T00:16:59.067Z,39.60
2023-03-17T00:19:33.412Z,44.40
2023-03-17T00:22:02.693Z,46.30
2023-03-17T00:24:31.263Z,47.10
2023-03-17T00:26:59.860Z,44.90
2023-03-17T00:29:28.109Z,42.70
2023-03-17T00:31:57.748Z,41.20
2023-03-17T00:34:25.746Z,46.10
2023-03-17T00:37:02.124Z,48.50
2023-03-17T00:39:30.225Z,44.40
2023-03-17T00:42:04.544Z,41.50
2023-03-17T00:44:34.597Z,39.60
2023-03-17T00:47:02.661Z,41.70
2023-03-17T00:49:31.063Z,43.90
2023-03-17T00:51:58.959Z,45.70
2023-03-17T00:54:26.906Z,47.70
2023-03-17T00:56:54.924Z,42.00
2023-03-17T00:59:35.610Z,39.90
2023-03-17T01:02:03.573Z,39.40
2023-03-17T01:04:32.323Z,40.30
2023-03-17T01:07:00.401Z,42.40
2023-03-17T01:09:30.865Z,42.40
2023-03-17T01:11:58.948Z,41.20
2023-03-17T01:14:26.872Z,39.00
2023-03-17T01:16:55.286Z,34.90
2023-03-17T01:19:23.917Z,34.50
2023-03-17T01:21:58.450Z,39.00
2023-03-17T01:24:27.723Z,39.00
2023-03-17T01:26:55.681Z,38.60
2023-03-17T01:29:23.634Z,36.00
2023-03-17T01:31:51.674Z,36.50
2023-03-17T01:34:19.794Z,34.40
2023-03-17T01:36:48.637Z,34.20
2023-03-17T01:39:16.745Z,34.00
2023-03-17T01:41:45.742Z,35.20
2023-03-17T01:44:19.244Z,36.40
2023-03-17T01:46:47.693Z,35.10
2023-03-17T01:49:22.806Z,57.70
2023-03-17T01:52:07.662Z,56.40
2023-03-17T01:57:16.604Z,68.50
2023-03-17T01:59:50.511Z,64.30
2023-03-17T02:02:31.080Z,61.50
2023-03-17T02:04:59.918Z,58.20
2023-03-17T02:07:30.001Z,59.50
2023-03-17T02:09:58.942Z,52.30
2023-03-17T02:12:29.578Z,46.50
2023-03-17T02:14:58.696Z,57.10
2023-03-17T02:17:28.978Z,52.00
2023-03-17T02:19:57.091Z,48.90
2023-03-17T02:22:25.367Z,50.10
2023-03-17T02:24:57.213Z,53.20
2023-03-17T02:27:35.630Z,48.70
2023-03-17T02:30:06.446Z,50.90
2023-03-17T02:32:36.314Z,54.50
2023-03-17T02:35:05.570Z,54.20
2023-03-17T02:37:33.962Z,49.90
2023-03-17T02:40:02.773Z,50.10
2023-03-17T02:42:30.921Z,42.80
2023-03-17T02:45:00.397Z,38.50
2023-03-17T02:47:28.594Z,37.80
2023-03-17T02:49:56.928Z,36.90
2023-03-17T02:52:25.545Z,34.80
2023-03-17T02:54:53.431Z,31.80
2023-03-17T02:57:21.609Z,30.60
2023-03-17T02:59:50.241Z,31.40
2023-03-17T03:02:18.443Z,31.50
2023-03-17T03:04:46.847Z,31.00
2023-03-17T03:07:15.012Z,33.30
2023-03-17T03:09:42.976Z,34.30
2023-03-17T03:12:11.510Z,31.90
2023-03-17T03:14:39.750Z,31.70
2023-03-17T03:17:09.195Z,28.40
2023-03-17T03:19:37.204Z,28.60
2023-03-17T03:22:05.403Z,32.40
2023-03-17T03:24:33.413Z,28.00
2023-03-17T03:27:01.749Z,28.40
2023-03-17T03:29:29.706Z,26.20
2023-03-17T03:31:57.727Z,28.20
2023-03-17T03:34:26.218Z,28.30
2023-03-17T03:36:54.177Z,30.20
2023-03-17T03:39:22.143Z,27.90
2023-03-17T03:41:50.054Z,27.90
2023-03-17T03:44:18.076Z,26.20
2023-03-17T03:46:46.337Z,28.10
2023-03-17T03:49:14.283Z,27.40
2023-03-17T03:51:42.272Z,29.40
2023-03-17T03:54:10.435Z,28.40
2023-03-17T03:56:38.448Z,26.60
2023-03-17T03:59:06.435Z,26.60
2023-03-17T04:01:34.446Z,27.80
2023-03-17T04:04:02.433Z,27.80
2023-03-17T04:06:30.382Z,33.10
2023-03-17T04:08:58.535Z,28.60
2023-03-17T04:11:26.588Z,29.30
2023-03-17T04:13:54.594Z,27.40
2023-03-17T04:16:22.666Z,29.00
2023-03-17T04:18:51.309Z,27.90
2023-03-17T04:21:20.635Z,28.90
2023-03-17T04:23:48.635Z,33.40
2023-03-17T04:26:18.828Z,32.20
2023-03-17T04:28:46.773Z,31.60
2023-03-17T04:31:15.422Z,32.60
2023-03-17T04:33:43.412Z,33.80
2023-03-17T04:36:19.486Z,38.50
2023-03-17T04:38:47.783Z,31.40
2023-03-17T04:41:15.905Z,30.70
2023-03-17T04:43:45.503Z,29.30
2023-03-17T04:46:14.062Z,31.10
2023-03-17T04:48:42.137Z,34.70
2023-03-17T04:51:11.781Z,32.20
2023-03-17T04:53:40.254Z,33.10
2023-03-17T04:56:08.416Z,32.00
2023-03-17T04:58:36.502Z,32.80
2023-03-17T05:01:05.279Z,32.20
2023-03-17T05:03:33.361Z,34.80
2023-03-17T05:06:03.020Z,36.60
2023-03-17T05:08:31.117Z,32.20
2023-03-17T05:10:59.103Z,31.50
2023-03-17T05:13:27.610Z,32.10
2023-03-17T05:15:56.732Z,33.90
2023-03-17T05:18:26.012Z,35.70
2023-03-17T05:20:54.385Z,34.70
2023-03-17T05:23:23.099Z,34.90
2023-03-17T05:25:51.182Z,35.90
2023-03-17T05:28:20.980Z,37.80
2023-03-17T05:30:49.428Z,36.80
2023-03-17T05:33:17.634Z,35.10
2023-03-17T05:35:46.532Z,35.00
2023-03-17T05:38:16.159Z,31.40
2023-03-17T05:40:45.036Z,34.30
2023-03-17T05:43:13.186Z,32.30
2023-03-17T05:45:41.445Z,33.60
2023-03-17T05:48:09.443Z,31.10
2023-03-17T05:50:37.430Z,32.50
2023-03-17T05:53:06.432Z,31.30
2023-03-17T05:55:34.326Z,31.30
2023-03-17T05:58:04.672Z,29.00
2023-03-17T06:00:33.418Z,30.40
2023-03-17T06:03:02.426Z,34.40
2023-03-17T06:05:31.023Z,30.60
2023-03-17T06:07:58.928Z,31.10
2023-03-17T06:10:27.367Z,28.70
2023-03-17T06:12:55.723Z,30.10
2023-03-17T06:15:23.602Z,28.30
2023-03-17T06:17:51.921Z,28.50
2023-03-17T06:20:20.340Z,27.90
2023-03-17T06:23:03.216Z,29.20
2023-03-17T06:25:32.439Z,28.00
2023-03-17T06:28:02.778Z,27.80
2023-03-17T06:30:34.379Z,28.90
2023-03-17T06:33:03.907Z,28.20
2023-03-17T06:35:33.461Z,29.40
2023-03-17T06:38:02.536Z,28.40
2023-03-17T06:40:32.167Z,30.80
2023-03-17T06:43:01.388Z,30.90
2023-03-17T06:45:29.627Z,29.40
2023-03-17T06:47:57.947Z,30.80
2023-03-17T06:50:25.912Z,29.30
2023-03-17T06:52:53.878Z,29.50
2023-03-17T06:55:21.908Z,27.90
2023-03-17T06:57:51.161Z,28.60
2023-03-17T07:00:21.155Z,28.00
2023-03-17T07:02:49.701Z,26.00
2023-03-17T07:05:18.052Z,27.00
2023-03-17T07:07:46.381Z,27.80
2023-03-17T07:10:15.950Z,25.40
2023-03-17T07:12:45.043Z,26.90
2023-03-17T07:15:13.518Z,27.30
2023-03-17T07:17:41.890Z,27.30
2023-03-17T07:20:11.863Z,27.00
2023-03-17T07:22:41.162Z,25.70
2023-03-17T07:25:09.892Z,26.40
2023-03-17T07:27:37.953Z,27.20
2023-03-17T07:30:06.812Z,26.00
2023-03-17T07:32:36.322Z,26.40
2023-03-17T07:35:05.263Z,26.30
2023-03-17T07:37:33.240Z,28.80
2023-03-17T07:40:01.256Z,31.30
2023-03-17T07:42:30.197Z,29.50
2023-03-17T07:44:58.116Z,29.90
2023-03-17T07:47:26.286Z,29.90
2023-03-17T07:49:54.925Z,30.50
2023-03-17T07:52:22.853Z,30.00
2023-03-17T07:54:52.200Z,31.30
2023-03-17T07:57:20.307Z,31.90
2023-03-17T07:59:49.069Z,31.30
2023-03-17T08:02:18.448Z,34.00
2023-03-17T08:04:47.058Z,30.50
2023-03-17T08:07:15.668Z,31.50
2023-03-17T08:09:43.743Z,32.10
2023-03-17T08:12:11.865Z,27.30
2023-03-17T08:14:39.778Z,27.30
2023-03-17T08:17:08.334Z,28.30
2023-03-17T08:19:36.496Z,28.00
2023-03-17T08:22:04.647Z,28.30
2023-03-17T08:24:32.826Z,28.90
2023-03-17T08:27:01.163Z,28.50
2023-03-17T08:29:30.078Z,28.70
2023-03-17T08:31:58.087Z,25.50
2023-03-17T08:34:26.412Z,26.50
2023-03-17T08:36:54.533Z,28.80
2023-03-17T08:39:22.587Z,23.80
2023-03-17T08:41:51.104Z,24.40
2023-03-17T08:44:20.866Z,27.90
2023-03-17T08:46:50.282Z,25.80
2023-03-17T08:49:18.519Z,23.70
2023-03-17T08:51:46.441Z,23.80
2023-03-17T08:54:15.316Z,22.40
2023-03-17T08:56:43.274Z,21.50
2023-03-17T08:59:11.289Z,19.90
2023-03-17T09:01:40.305Z,18.40
2023-03-17T09:04:08.976Z,19.30
2023-03-17T09:06:38.785Z,19.20
2023-03-17T09:09:07.781Z,16.00
2023-03-17T09:11:35.742Z,14.70
2023-03-17T09:14:03.803Z,13.40
2023-03-17T09:16:34.225Z,13.40
2023-03-17T09:19:02.264Z,11.20
2023-03-17T09:21:30.276Z,11.90
2023-03-17T09:24:00.375Z,10.60
2023-03-17T09:26:29.743Z,9.20
2023-03-17T09:28:57.940Z,8.90
2023-03-17T09:31:26.848Z,8.80
2023-03-17T09:33:54.766Z,9.70
2023-03-17T09:36:23.779Z,8.60
2023-03-17T09:38:52.340Z,9.00
2023-03-17T09:41:30.809Z,9.20
2023-03-17T09:44:20.521Z,7.50
2023-03-17T09:47:08.699Z,8.00
2023-03-17T09:49:47.457Z,8.20
2023-03-17T09:52:18.876Z,9.80
2023-03-17T09:54:49.642Z,8.90
2023-03-17T09:57:24.980Z,9.90
2023-03-17T10:00:12.121Z,7.70
2023-03-17T10:02:41.974Z,8.30
2023-03-17T10:05:39.017Z,8.70
2023-03-17T10:08:30.003Z,8.20
2023-03-17T10:11:07.375Z,8.80
2023-03-17T10:13:41.011Z,7.60
2023-03-17T10:16:37.387Z,8.70
2023-03-17T10:19:29.559Z,8.50
2023-03-17T10:22:03.098Z,8.40
2023-03-17T10:24:34.215Z,8.80
2023-03-17T10:27:06.513Z,9.50
2023-03-17T10:29:34.665Z,10.90
2023-03-17T10:32:02.847Z,11.40
2023-03-17T10:34:34.276Z,12.20
2023-03-17T10:37:07.874Z,10.90
2023-03-17T10:39:49.172Z,11.20
2023-03-17T10:42:22.762Z,10.90
2023-03-17T10:44:50.874Z,10.90
2023-03-17T10:47:39.774Z,11.70
2023-03-17T10:50:22.768Z,12.20
2023-03-17T10:52:59.366Z,12.00
2023-03-17T10:55:51.295Z,11.70
2023-03-17T10:58:37.024Z,9.90
2023-03-17T11:01:20.206Z,10.70
2023-03-17T11:03:50.067Z,11.80
2023-03-17T11:06:20.928Z,10.90
2023-03-17T11:08:55.971Z,11.20
2023-03-17T11:11:29.811Z,10.70
2023-03-17T11:14:32.654Z,11.10
2023-03-17T11:18:25.457Z,11.10
2023-03-17T11:22:10.890Z,11.90
2023-03-17T11:25:39.764Z,12.50
2023-03-17T11:29:14.378Z,10.00
2023-03-17T11:32:25.808Z,10.70
2023-03-17T11:35:33.717Z,8.40
2023-03-17T11:38:29.363Z,8.20
2023-03-17T11:41:18.841Z,6.40
2023-03-17T11:43:53.048Z,6.60
2023-03-17T11:46:29.689Z,7.50
2023-03-17T11:49:04.629Z,7.40
2023-03-17T11:52:11.076Z,9.30
2023-03-17T11:54:41.920Z,8.90
2023-03-17T11:57:17.659Z,8.80
2023-03-17T11:59:53.208Z,9.00
2023-03-17T12:02:39.495Z,8.70
2023-03-17T12:05:23.181Z,10.40
2023-03-17T12:08:09.908Z,8.20
2023-03-17T12:10:46.108Z,8.40
2023-03-17T12:13:23.767Z,7.50
2023-03-17T12:15:56.870Z,7.50
2023-03-17T12:18:32.813Z,7.80
2023-03-17T12:21:15.811Z,7.00
2023-03-17T12:23:49.828Z,6.70
2023-03-17T12:26:28.483Z,6.50
2023-03-17T12:29:02.331Z,6.90
2023-03-17T12:31:37.151Z,6.20
2023-03-17T12:34:11.202Z,6.80
2023-03-17T12:36:39.599Z,7.40
2023-03-17T12:39:12.650Z,6.30
2023-03-17T12:42:01.828Z,6.70
2023-03-17T12:44:48.481Z,6.90
2023-03-17T12:47:24.643Z,6.60
2023-03-17T12:50:18.738Z,8.30
2023-03-17T12:53:36.909Z,7.00
2023-03-17T12:56:19.196Z,7.50
2023-03-17T12:58:53.143Z,8.10
2023-03-17T13:01:25.563Z,8.70
2023-03-17T13:04:27.068Z,7.10
2023-03-17T13:06:59.860Z,9.80
2023-03-17T13:09:48.566Z,7.80
2023-03-17T13:12:40.582Z,6.70
2023-03-17T13:15:49.969Z,7.10
2023-03-17T13:18:18.643Z,7.70
2023-03-17T13:21:02.239Z,7.80
2023-03-17T13:23:59.659Z,7.00
2023-03-17T13:26:50.880Z,7.10
2023-03-17T13:29:32.322Z,7.60
2023-03-17T13:32:15.685Z,6.20
2023-03-17T13:34:49.836Z,8.50
2023-03-17T13:40:31.922Z,6.90
2023-03-17T13:43:36.703Z,6.90
2023-03-17T13:46:26.990Z,7.80
2023-03-17T13:48:56.951Z,9.40
2023-03-17T13:51:27.449Z,7.40
2023-03-17T13:53:59.112Z,8.30
2023-03-17T13:56:47.338Z,7.30
2023-03-17T13:59:17.036Z,9.60
2023-03-17T14:01:55.854Z,7.00
2023-03-17T14:04:30.895Z,6.70
2023-03-17T14:07:05.404Z,6.60
2023-03-17T14:09:38.141Z,6.70
2023-03-17T14:12:35.783Z,6.30
2023-03-17T14:15:16.026Z,6.60
2023-03-17T14:17:52.368Z,7.20
2023-03-17T14:20:26.106Z,6.60
2023-03-17T14:23:01.374Z,6.50
2023-03-17T14:25:41.017Z,5.80
2023-03-17T14:28:14.207Z,7.80
2023-03-17T14:30:52.210Z,7.30
2023-03-17T14:33:31.023Z,7.10
2023-03-17T14:36:01.519Z,7.00
2023-03-17T14:38:35.553Z,7.00
2023-03-17T14:41:24.466Z,6.50
2023-03-17T14:43:57.411Z,6.50
2023-03-17T14:46:30.901Z,9.20
2023-03-17T14:49:21.228Z,9.20
2023-03-17T14:51:53.610Z,9.20
2023-03-17T14:54:33.574Z,7.20
2023-03-17T14:57:33.096Z,7.20
2023-03-17T15:00:24.063Z,9.40
2023-03-17T15:02:56.672Z,8.80
2023-03-17T15:09:20.780Z,10.90
2023-03-17T15:11:49.375Z,10.90
2023-03-17T15:14:24.987Z,9.50
2023-03-17T15:16:55.141Z,10.60
2023-03-17T15:19:39.029Z,8.40
2023-03-17T15:22:25.197Z,9.60
2023-03-17T15:24:59.574Z,7.90
2023-03-17T15:29:56.641Z,8.70
2023-03-17T15:32:27.245Z,9.20
2023-03-17T15:34:57.217Z,10.10
2023-03-17T15:37:28.502Z,9.50
2023-03-17T15:39:57.410Z,8.40
2023-03-17T15:42:31.375Z,12.10
2023-03-17T15:45:03.740Z,9.00
2023-03-17T15:47:34.013Z,8.70
2023-03-17T15:50:29.426Z,9.00
2023-03-17T15:52:58.944Z,8.90
2023-03-17T15:55:29.868Z,9.60
2023-03-17T15:57:58.862Z,9.00
2023-03-17T16:00:30.273Z,8.70
2023-03-17T16:03:13.457Z,9.20
2023-03-17T16:05:43.389Z,9.90
2023-03-17T16:08:16.244Z,9.50
2023-03-17T16:10:44.855Z,9.80
2023-03-17T16:13:12.864Z,9.40
2023-03-17T16:15:43.727Z,9.30
2023-03-17T16:18:18.904Z,9.40
2023-03-17T16:20:49.685Z,9.90
2023-03-17T16:23:30.415Z,9.10
2023-03-17T16:26:11.815Z,10.20
2023-03-17T16:28:44.794Z,9.50
2023-03-17T16:31:30.233Z,9.60
2023-03-17T16:33:58.344Z,9.70
2023-03-17T16:36:26.398Z,9.90
2023-03-17T16:38:54.460Z,9.80
2023-03-17T16:41:27.691Z,9.90
2023-03-17T16:44:00.954Z,9.40
2023-03-17T16:46:34.573Z,9.30
2023-03-17T16:49:04.665Z,9.80
2023-03-17T16:51:32.649Z,9.70
2023-03-17T16:54:00.557Z,9.10
2023-03-17T16:56:29.064Z,10.40
2023-03-17T16:58:57.175Z,10.60
2023-03-17T17:01:27.353Z,10.90
2023-03-17T17:03:55.846Z,10.50
2023-03-17T17:06:24.057Z,10.70
2023-03-17T17:08:52.925Z,10.30
2023-03-17T17:11:21.710Z,11.90
2023-03-17T17:13:50.149Z,12.00
2023-03-17T17:16:29.074Z,11.90
2023-03-17T17:18:58.090Z,12.10
2023-03-17T17:21:27.171Z,10.40
2023-03-17T17:23:55.765Z,12.50
2023-03-17T17:26:23.740Z,11.00
2023-03-17T17:28:51.680Z,11.20
2023-03-17T17:31:19.722Z,11.80
2023-03-17T17:33:47.744Z,12.10
2023-03-17T17:36:17.587Z,11.90
2023-03-17T17:38:45.884Z,13.60
2023-03-17T17:41:14.643Z,13.40
2023-03-17T17:43:42.695Z,11.60
2023-03-17T17:46:14.935Z,14.90
2023-03-17T17:48:43.812Z,16.90
2023-03-17T17:51:11.717Z,17.30
2023-03-17T17:53:39.914Z,17.90
2023-03-17T17:56:12.855Z,19.80
2023-03-17T17:58:40.910Z,19.30
2023-03-17T18:01:11.863Z,19.20
2023-03-17T18:03:42.842Z,20.10
2023-03-17T18:06:13.145Z,18.60
2023-03-17T18:08:41.251Z,17.80
2023-03-17T18:11:09.482Z,16.70
2023-03-17T18:13:39.057Z,16.40
2023-03-17T18:16:12.582Z,14.50
2023-03-17T18:18:42.453Z,14.50
2023-03-17T18:21:13.939Z,14.20
2023-03-17T18:23:47.406Z,12.90
2023-03-17T18:26:17.901Z,14.30
2023-03-17T18:28:47.851Z,13.30
2023-03-17T18:31:26.396Z,12.60
2023-03-17T18:33:58.981Z,15.20
2023-03-17T18:36:28.043Z,13.50
2023-03-17T18:38:56.685Z,12.20
2023-03-17T18:41:26.848Z,13.60
2023-03-17T18:43:54.967Z,13.60
2023-03-17T18:46:23.238Z,13.50
2023-03-17T18:48:51.673Z,14.60
2023-03-17T18:51:19.609Z,14.00
2023-03-17T18:53:47.621Z,14.80
2023-03-17T18:56:16.066Z,14.30
2023-03-17T18:58:44.006Z,14.40
2023-03-17T19:01:12.209Z,15.50
2023-03-17T19:03:40.736Z,15.90
2023-03-17T19:06:17.370Z,16.20
2023-03-17T19:08:47.945Z,15.80
2023-03-17T19:11:18.780Z,16.20
2023-03-17T19:13:47.156Z,17.10
2023-03-17T19:16:16.749Z,17.80
2023-03-17T19:18:45.512Z,17.20
2023-03-17T19:21:13.802Z,18.40
2023-03-17T19:23:42.225Z,18.20
2023-03-17T19:26:11.770Z,18.40
2023-03-17T19:28:39.872Z,19.80
2023-03-17T19:31:10.200Z,18.80
2023-03-17T19:33:38.801Z,19.40
2023-03-17T19:36:11.043Z,20.60
2023-03-17T19:38:40.259Z,19.80
2023-03-17T19:41:08.231Z,20.70
2023-03-17T19:43:41.166Z,19.70
2023-03-17T19:46:11.569Z,19.00
2023-03-17T19:48:40.089Z,20.00
2023-03-17T19:51:08.428Z,18.70
2023-03-17T19:53:37.536Z,18.60
2023-03-17T19:56:06.616Z,18.30
2023-03-17T19:58:35.366Z,20.60
2023-03-17T20:01:07.678Z,21.70
2023-03-17T20:03:37.968Z,18.80
2023-03-17T20:06:07.077Z,20.80
2023-03-17T20:08:36.240Z,18.40
2023-03-17T20:11:06.073Z,21.00
2023-03-17T20:13:35.991Z,17.60
2023-03-17T20:16:06.403Z,18.90
2023-03-17T20:18:34.717Z,20.00
2023-03-17T20:21:05.894Z,19.10
2023-03-17T20:23:34.614Z,18.40
2023-03-17T20:26:03.703Z,19.60
2023-03-17T20:28:31.886Z,19.40
2023-03-17T20:31:08.147Z,19.00
2023-03-17T20:33:36.544Z,21.20
2023-03-17T20:36:06.496Z,19.40
2023-03-17T20:38:39.049Z,20.10
2023-03-17T20:41:18.331Z,20.20
2023-03-17T20:43:47.641Z,19.40
2023-03-17T20:46:22.066Z,20.20
2023-03-17T20:48:58.753Z,20.00
2023-03-17T20:51:27.963Z,20.70
2023-03-17T20:53:56.929Z,20.20
2023-03-17T20:56:26.619Z,20.30
2023-03-17T20:58:58.767Z,21.70
2023-03-17T21:01:27.430Z,20.30
2023-03-17T21:03:55.666Z,21.40
2023-03-17T21:06:26.158Z,19.60
2023-03-17T21:08:55.873Z,20.00
2023-03-17T21:11:24.539Z,19.80
2023-03-17T21:13:57.017Z,20.50
2023-03-17T21:16:27.818Z,20.60
2023-03-17T21:18:56.217Z,20.60
2023-03-17T21:21:25.146Z,21.30
2023-03-17T21:23:53.878Z,20.20
2023-03-17T21:26:21.901Z,20.70
2023-03-17T21:28:50.510Z,21.90
2023-03-17T21:31:19.391Z,20.10
2023-03-17T21:33:50.606Z,22.40
2023-03-17T21:36:21.171Z,22.40
2023-03-17T21:38:49.323Z,20.90
2023-03-17T21:41:36.072Z,20.70
2023-03-17T21:44:06.421Z,19.70
2023-03-17T21:46:34.939Z,20.80
2023-03-17T21:49:02.925Z,20.60
2023-03-17T21:51:31.283Z,21.90
2023-03-17T21:53:59.270Z,21.50
2023-03-17T21:56:27.484Z,21.80
2023-03-17T21:58:56.244Z,20.80
2023-03-17T22:01:27.654Z,20.70
2023-03-17T22:03:55.611Z,21.00
2023-03-17T22:06:26.244Z,21.80
2023-03-17T22:08:54.716Z,20.40
2023-03-17T22:11:22.679Z,22.90
2023-03-17T22:13:50.793Z,21.10
2023-03-17T22:16:19.858Z,22.00
2023-03-17T22:18:48.478Z,22.00
2023-03-17T22:21:16.720Z,22.10
2023-03-17T22:23:44.638Z,22.50
2023-03-17T22:26:20.836Z,23.00
2023-03-17T22:28:51.835Z,21.10
2023-03-17T22:31:22.591Z,23.30
2023-03-17T22:33:54.930Z,21.40
2023-03-17T22:36:25.809Z,21.10
2023-03-17T22:38:56.905Z,22.30
2023-03-17T22:41:28.663Z,22.40
2023-03-17T22:43:57.712Z,22.20
2023-03-17T22:46:26.131Z,23.40
2023-03-17T22:48:54.596Z,24.90
2023-03-17T22:51:24.541Z,24.10
2023-03-17T22:53:53.099Z,27.90
2023-03-17T22:56:21.545Z,29.60
2023-03-17T22:58:49.669Z,30.40
2023-03-17T23:01:18.634Z,32.00
2023-03-17T23:03:47.185Z,34.20
2023-03-17T23:06:16.235Z,34.10
2023-03-17T23:08:46.061Z,30.00
2023-03-17T23:11:21.254Z,27.10
2023-03-17T23:13:50.888Z,28.10
2023-03-17T23:16:20.412Z,36.90
2023-03-17T23:18:48.515Z,46.40
2023-03-17T23:21:26.459Z,39.20
2023-03-17T23:23:55.160Z,48.20
2023-03-17T23:26:23.147Z,47.70
2023-03-17T23:28:51.362Z,38.60
2023-03-17T23:31:22.345Z,34.80
2023-03-17T23:33:51.420Z,31.40
2023-03-17T23:36:19.599Z,25.40
2023-03-17T23:38:48.673Z,23.80
2023-03-17T23:41:17.571Z,24.10
2023-03-17T23:43:46.853Z,24.20
2023-03-17T23:46:15.078Z,24.60
2023-03-17T23:48:43.618Z,24.40
2023-03-17T23:51:12.821Z,27.00
2023-03-17T23:53:41.900Z,26.10
2023-03-17T23:56:11.557Z,24.60
2023-03-17T23:58:42.520Z,24.10
